createdAt,value
2019-03-26T00:00:01.890Z,7.60
2019-03-26T00:01:07.856Z,7.60
2019-03-26T00:02:11.277Z,7.50
2019-03-26T00:03:15.138Z,7.60
2019-03-26T00:04:18.316Z,7.50
2019-03-26T00:05:21.595Z,7.50
2019-03-26T00:06:25.246Z,7.60
2019-03-26T00:07:28.428Z,7.60
2019-03-26T00:08:32.247Z,7.60
2019-03-26T00:09:35.546Z,7.60
2019-03-26T00:10:38.955Z,7.50
2019-03-26T00:11:42.231Z,7.50
2019-03-26T00:12:45.656Z,7.60
2019-03-26T00:13:48.826Z,7.50
2019-03-26T00:14:52.203Z,7.50
2019-03-26T00:15:55.419Z,7.50
2019-03-26T00:16:59.701Z,7.50
2019-03-26T00:18:03.086Z,7.50
2019-03-26T00:19:06.318Z,7.50
2019-03-26T00:20:09.877Z,7.50
2019-03-26T00:21:13.032Z,7.60
2019-03-26T00:22:16.575Z,7.60
2019-03-26T00:23:21.558Z,7.60
2019-03-26T00:24:24.950Z,7.50
2019-03-26T00:25:28.688Z,7.50
2019-03-26T00:26:31.953Z,7.50
2019-03-26T00:27:35.187Z,7.50
2019-03-26T00:28:38.732Z,7.60
2019-03-26T00:29:41.893Z,7.60
2019-03-26T00:30:45.051Z,7.50
2019-03-26T00:31:48.414Z,7.50
2019-03-26T00:32:51.583Z,7.50
2019-03-26T00:33:54.816Z,7.40
2019-03-26T00:34:58.026Z,7.40
2019-03-26T00:36:01.304Z,7.50
2019-03-26T00:37:06.373Z,7.50
2019-03-26T00:38:09.566Z,7.50
2019-03-26T00:39:12.970Z,7.50
2019-03-26T00:40:17.928Z,7.50
2019-03-26T00:41:21.176Z,7.50
2019-03-26T00:42:24.830Z,7.50
2019-03-26T00:43:28.189Z,7.50
2019-03-26T00:44:31.432Z,7.50
2019-03-26T00:45:34.639Z,7.40
2019-03-26T00:46:37.939Z,7.40
2019-03-26T00:47:41.128Z,7.40
2019-03-26T00:48:47.349Z,7.50
2019-03-26T00:49:50.629Z,7.50
2019-03-26T00:50:53.782Z,7.50
2019-03-26T00:51:56.955Z,7.50
2019-03-26T00:53:00.636Z,7.40
2019-03-26T00:54:03.782Z,7.40
2019-03-26T00:55:07.138Z,7.40
2019-03-26T00:56:10.468Z,7.40
2019-03-26T00:57:14.108Z,7.40
2019-03-26T00:58:17.343Z,7.40
2019-03-26T00:59:20.717Z,7.40
2019-03-26T01:00:39.303Z,7.50
2019-03-26T01:01:42.644Z,7.40
2019-03-26T01:02:45.951Z,7.50
2019-03-26T01:03:49.142Z,7.40
2019-03-26T01:04:52.392Z,7.50
2019-03-26T01:05:56.853Z,7.50
2019-03-26T01:07:01.487Z,7.50
2019-03-26T01:08:05.347Z,7.50
2019-03-26T01:09:09.123Z,7.50
2019-03-26T01:10:25.392Z,7.50
2019-03-26T01:11:30.068Z,7.50
2019-03-26T01:12:34.702Z,7.60
2019-03-26T01:13:39.675Z,7.60
2019-03-26T01:14:43.356Z,7.60
2019-03-26T01:15:46.871Z,7.60
2019-03-26T01:16:50.925Z,7.60
2019-03-26T01:17:54.757Z,7.50
2019-03-26T01:18:59.423Z,7.50
2019-03-26T01:20:03.670Z,7.50
2019-03-26T01:21:08.614Z,7.40
2019-03-26T01:22:11.790Z,7.50
2019-03-26T01:23:15.558Z,7.50
2019-03-26T01:24:19.778Z,7.50
2019-03-26T01:25:24.210Z,7.50
2019-03-26T01:26:27.815Z,7.50
2019-03-26T01:27:31.816Z,7.50
2019-03-26T01:28:35.569Z,7.40
2019-03-26T01:29:39.380Z,7.50
2019-03-26T01:30:43.154Z,7.50
2019-03-26T01:31:46.711Z,7.50
2019-03-26T01:32:50.188Z,7.50
2019-03-26T01:33:53.609Z,7.40
2019-03-26T01:34:56.954Z,7.40
2019-03-26T01:36:00.238Z,7.40
2019-03-26T01:37:03.522Z,7.50
2019-03-26T01:38:06.674Z,7.40
2019-03-26T01:39:10.061Z,7.40
2019-03-26T01:40:13.266Z,7.40
2019-03-26T01:41:16.529Z,7.40
2019-03-26T01:42:19.922Z,7.40
2019-03-26T01:43:23.187Z,7.40
2019-03-26T01:44:26.359Z,7.40
2019-03-26T01:45:29.693Z,7.40
2019-03-26T01:46:33.057Z,7.40
2019-03-26T01:47:36.303Z,7.40
2019-03-26T01:48:39.559Z,7.40
2019-03-26T01:49:42.713Z,7.40
2019-03-26T01:50:46.123Z,7.40
2019-03-26T01:51:49.279Z,7.40
2019-03-26T01:52:53.645Z,7.40
2019-03-26T01:53:57.033Z,7.30
2019-03-26T01:55:00.394Z,7.30
2019-03-26T01:56:03.844Z,7.40
2019-03-26T01:57:07.181Z,7.40
2019-03-26T01:58:10.568Z,7.40
2019-03-26T01:59:13.995Z,7.40
2019-03-26T02:00:17.197Z,7.40
2019-03-26T02:01:20.502Z,7.40
2019-03-26T02:02:23.682Z,7.40
2019-03-26T02:03:27.047Z,7.30
2019-03-26T02:04:30.414Z,7.30
2019-03-26T02:05:33.709Z,7.30
2019-03-26T02:06:37.017Z,7.30
2019-03-26T02:07:40.451Z,7.20
2019-03-26T02:08:43.761Z,7.30
2019-03-26T02:09:47.293Z,7.20
2019-03-26T02:10:50.668Z,7.30
2019-03-26T02:11:54.115Z,7.30
2019-03-26T02:12:57.405Z,7.20
2019-03-26T02:14:00.583Z,7.20
2019-03-26T02:15:04.878Z,7.30
2019-03-26T02:16:08.191Z,7.30
2019-03-26T02:17:11.356Z,7.40
2019-03-26T02:18:14.610Z,7.40
2019-03-26T02:19:18.071Z,7.40
2019-03-26T02:20:21.538Z,7.40
2019-03-26T02:21:24.858Z,7.40
2019-03-26T02:22:28.125Z,7.30
2019-03-26T02:23:31.320Z,7.30
2019-03-26T02:24:34.534Z,7.30
2019-03-26T02:25:37.797Z,7.40
2019-03-26T02:26:41.036Z,7.30
2019-03-26T02:27:44.228Z,7.30
2019-03-26T02:28:47.814Z,7.30
2019-03-26T02:29:51.106Z,7.30
2019-03-26T02:30:54.535Z,7.30
2019-03-26T02:31:57.686Z,7.30
2019-03-26T02:33:03.584Z,7.30
2019-03-26T02:34:06.932Z,7.30
2019-03-26T02:35:17.602Z,7.30
2019-03-26T02:36:15.691Z,7.30
2019-03-26T02:37:19.038Z,7.30
2019-03-26T02:38:22.336Z,7.30
2019-03-26T02:39:26.013Z,7.30
2019-03-26T02:40:29.297Z,7.40
2019-03-26T02:41:32.465Z,7.30
2019-03-26T02:42:35.871Z,7.30
2019-03-26T02:43:39.036Z,7.30
2019-03-26T02:44:42.517Z,7.30
2019-03-26T02:45:45.882Z,7.30
2019-03-26T02:46:49.043Z,7.20
2019-03-26T02:47:52.417Z,7.20
2019-03-26T02:48:55.675Z,7.20
2019-03-26T02:49:58.953Z,7.20
2019-03-26T02:51:02.092Z,7.20
2019-03-26T02:52:05.243Z,7.10
2019-03-26T02:53:08.930Z,7.10
2019-03-26T02:54:12.448Z,7.10
2019-03-26T02:55:15.621Z,7.10
2019-03-26T02:56:18.992Z,7.10
2019-03-26T02:57:22.470Z,7.10
2019-03-26T02:58:25.752Z,7.10
2019-03-26T02:59:29.223Z,7.10
2019-03-26T03:00:32.509Z,7.10
2019-03-26T03:01:35.816Z,7.00
2019-03-26T03:02:39.082Z,7.10
2019-03-26T03:03:42.687Z,7.10
2019-03-26T03:04:46.010Z,7.10
2019-03-26T03:05:49.384Z,7.20
2019-03-26T03:06:52.826Z,7.10
2019-03-26T03:07:56.074Z,7.10
2019-03-26T03:08:59.713Z,7.10
2019-03-26T03:10:03.509Z,7.00
2019-03-26T03:11:06.787Z,7.10
2019-03-26T03:12:09.977Z,7.10
2019-03-26T03:13:13.331Z,7.10
2019-03-26T03:14:16.835Z,7.10
2019-03-26T03:15:20.294Z,7.10
2019-03-26T03:16:23.511Z,7.10
2019-03-26T03:17:26.845Z,7.10
2019-03-26T03:18:30.222Z,7.10
2019-03-26T03:19:33.822Z,7.20
2019-03-26T03:20:37.356Z,7.20
2019-03-26T03:21:40.564Z,7.10
2019-03-26T03:22:43.959Z,7.10
2019-03-26T03:23:47.516Z,7.10
2019-03-26T03:24:50.774Z,7.10
2019-03-26T03:25:53.913Z,7.10
2019-03-26T03:26:57.250Z,7.10
2019-03-26T03:28:00.706Z,7.10
2019-03-26T03:29:04.025Z,7.10
2019-03-26T03:30:08.740Z,7.10
2019-03-26T03:31:12.217Z,7.10
2019-03-26T03:32:15.496Z,7.10
2019-03-26T03:33:18.664Z,7.10
2019-03-26T03:34:22.319Z,7.10
2019-03-26T03:35:25.800Z,7.10
2019-03-26T03:36:29.039Z,7.10
2019-03-26T03:37:32.498Z,7.10
2019-03-26T03:38:35.670Z,7.20
2019-03-26T03:39:39.030Z,7.10
2019-03-26T03:40:42.427Z,7.10
2019-03-26T03:41:45.572Z,7.20
2019-03-26T03:42:48.691Z,7.10
2019-03-26T03:43:52.242Z,7.10
2019-03-26T03:44:55.507Z,7.20
2019-03-26T03:45:59.172Z,7.20
2019-03-26T03:47:02.719Z,7.20
2019-03-26T03:48:06.614Z,7.10
2019-03-26T03:49:10.235Z,7.10
2019-03-26T03:50:14.177Z,7.10
2019-03-26T03:51:21.344Z,7.10
2019-03-26T03:52:25.041Z,7.00
2019-03-26T03:53:28.472Z,7.00
2019-03-26T03:54:33.173Z,7.00
2019-03-26T03:55:36.985Z,7.00
2019-03-26T03:56:42.447Z,7.00
2019-03-26T03:57:48.250Z,7.00
2019-03-26T03:58:52.334Z,7.00
2019-03-26T03:59:58.783Z,7.00
2019-03-26T04:01:02.108Z,7.00
2019-03-26T04:02:05.262Z,7.00
2019-03-26T04:03:09.372Z,7.00
2019-03-26T04:04:12.624Z,7.00
2019-03-26T04:05:15.978Z,7.00
2019-03-26T04:06:19.261Z,7.00
2019-03-26T04:07:22.828Z,7.00
2019-03-26T04:08:25.998Z,7.00
2019-03-26T04:09:29.268Z,7.00
2019-03-26T04:10:32.506Z,7.10
2019-03-26T04:11:35.804Z,7.10
2019-03-26T04:12:39.355Z,7.10
2019-03-26T04:13:42.608Z,7.10
2019-03-26T04:14:45.878Z,7.10
2019-03-26T04:15:49.422Z,7.10
2019-03-26T04:16:52.730Z,7.10
2019-03-26T04:17:55.971Z,7.00
2019-03-26T04:18:59.399Z,7.00
2019-03-26T04:20:02.958Z,7.00
2019-03-26T04:21:06.339Z,7.00
2019-03-26T04:22:09.976Z,7.00
2019-03-26T04:23:13.170Z,7.00
2019-03-26T04:24:16.333Z,6.90
2019-03-26T04:25:19.499Z,7.00
2019-03-26T04:26:22.667Z,6.90
2019-03-26T04:27:25.985Z,6.90
2019-03-26T04:28:29.141Z,7.00
2019-03-26T04:29:32.301Z,6.90
2019-03-26T04:30:35.831Z,6.90
2019-03-26T04:31:39.299Z,6.90
2019-03-26T04:32:42.562Z,6.90
2019-03-26T04:33:45.755Z,6.90
2019-03-26T04:34:49.074Z,7.00
2019-03-26T04:35:52.296Z,7.00
2019-03-26T04:36:55.673Z,6.90
2019-03-26T04:37:59.589Z,6.90
2019-03-26T04:39:04.078Z,6.90
2019-03-26T04:40:07.534Z,6.90
2019-03-26T04:41:10.703Z,6.90
2019-03-26T04:42:13.905Z,6.90
2019-03-26T04:43:18.987Z,6.90
2019-03-26T04:44:22.418Z,6.90
2019-03-26T04:45:25.781Z,6.90
2019-03-26T04:46:28.941Z,7.00
2019-03-26T04:47:32.087Z,7.00
2019-03-26T04:48:35.229Z,7.00
2019-03-26T04:49:38.810Z,7.00
2019-03-26T04:50:42.063Z,7.00
2019-03-26T04:51:45.546Z,7.00
2019-03-26T04:52:48.859Z,7.00
2019-03-26T04:53:52.116Z,7.00
2019-03-26T04:54:55.420Z,7.00
2019-03-26T04:55:59.026Z,6.90
2019-03-26T04:57:02.158Z,6.90
2019-03-26T04:58:05.673Z,7.00
2019-03-26T04:59:08.836Z,7.00
2019-03-26T05:00:12.803Z,7.00
2019-03-26T05:01:17.887Z,7.00
2019-03-26T05:02:21.085Z,7.00
2019-03-26T05:03:24.566Z,7.00
2019-03-26T05:04:27.750Z,7.00
2019-03-26T05:05:30.905Z,7.00
2019-03-26T05:06:38.180Z,7.00
2019-03-26T05:07:40.209Z,6.90
2019-03-26T05:08:43.373Z,6.90
2019-03-26T05:09:46.849Z,6.90
2019-03-26T05:10:50.294Z,7.00
2019-03-26T05:11:53.669Z,6.90
2019-03-26T05:12:56.869Z,7.00
2019-03-26T05:14:00.233Z,6.90
2019-03-26T05:15:03.362Z,7.00
2019-03-26T05:16:06.556Z,6.90
2019-03-26T05:17:09.909Z,6.90
2019-03-26T05:18:13.119Z,6.90
2019-03-26T05:19:16.528Z,6.90
2019-03-26T05:20:19.699Z,6.90
2019-03-26T05:21:22.983Z,6.90
2019-03-26T05:22:26.333Z,6.90
2019-03-26T05:23:29.591Z,6.90
2019-03-26T05:24:33.103Z,6.90
2019-03-26T05:25:36.555Z,6.90
2019-03-26T05:26:40.084Z,6.90
2019-03-26T05:27:45.570Z,6.90
2019-03-26T05:28:48.455Z,6.90
2019-03-26T05:29:51.723Z,6.90
2019-03-26T05:30:54.986Z,6.90
2019-03-26T05:31:58.376Z,7.00
2019-03-26T05:33:01.547Z,6.90
2019-03-26T05:34:04.908Z,6.90
2019-03-26T05:35:08.753Z,6.90
2019-03-26T05:36:12.019Z,6.90
2019-03-26T05:37:15.438Z,6.90
2019-03-26T05:38:19.081Z,6.90
2019-03-26T05:39:22.639Z,6.90
2019-03-26T05:40:25.883Z,6.90
2019-03-26T05:41:29.137Z,6.90
2019-03-26T05:42:32.347Z,6.90
2019-03-26T05:43:35.571Z,6.90
2019-03-26T05:44:38.705Z,6.90
2019-03-26T05:45:41.992Z,6.90
2019-03-26T05:46:45.327Z,6.80
2019-03-26T05:47:48.518Z,6.90
2019-03-26T05:48:52.089Z,6.80
2019-03-26T05:49:55.310Z,6.80
2019-03-26T05:50:58.585Z,6.80
2019-03-26T05:52:01.865Z,6.80
2019-03-26T05:53:04.978Z,6.80
2019-03-26T05:54:08.113Z,6.80
2019-03-26T05:55:11.578Z,6.80
2019-03-26T05:56:14.886Z,6.80
2019-03-26T05:57:18.157Z,6.80
2019-03-26T05:58:21.432Z,6.80
2019-03-26T05:59:24.734Z,6.80
2019-03-26T06:00:27.986Z,6.80
2019-03-26T06:01:31.498Z,6.80
2019-03-26T06:02:34.785Z,6.80
2019-03-26T06:03:38.384Z,6.80
2019-03-26T06:04:41.594Z,6.80
2019-03-26T06:05:44.798Z,6.90
2019-03-26T06:06:48.076Z,6.90
2019-03-26T06:07:51.641Z,6.90
2019-03-26T06:08:55.047Z,7.00
2019-03-26T06:09:58.345Z,7.00
2019-03-26T06:11:02.270Z,7.00
2019-03-26T06:12:05.562Z,7.00
2019-03-26T06:13:08.799Z,7.00
2019-03-26T06:14:12.160Z,7.00
2019-03-26T06:15:15.532Z,7.10
2019-03-26T06:16:19.055Z,7.00
2019-03-26T06:17:22.286Z,7.10
2019-03-26T06:18:25.679Z,7.10
2019-03-26T06:19:29.109Z,7.00
2019-03-26T06:20:32.281Z,7.00
2019-03-26T06:21:35.461Z,7.00
2019-03-26T06:22:38.837Z,7.00
2019-03-26T06:23:42.026Z,7.00
2019-03-26T06:24:45.239Z,7.00
2019-03-26T06:25:48.589Z,7.00
2019-03-26T06:26:51.764Z,6.90
2019-03-26T06:27:55.036Z,7.00
2019-03-26T06:29:01.235Z,7.00
2019-03-26T06:30:05.473Z,7.00
2019-03-26T06:31:08.769Z,7.00
2019-03-26T06:32:12.256Z,7.00
2019-03-26T06:33:15.998Z,7.00
2019-03-26T06:34:19.222Z,7.00
2019-03-26T06:35:22.548Z,7.00
2019-03-26T06:36:25.796Z,7.00
2019-03-26T06:37:29.260Z,7.10
2019-03-26T06:38:32.606Z,7.10
2019-03-26T06:39:36.045Z,7.10
2019-03-26T06:40:39.381Z,7.10
2019-03-26T06:41:42.862Z,7.00
2019-03-26T06:42:46.227Z,7.00
2019-03-26T06:43:49.620Z,7.00
2019-03-26T06:44:53.214Z,7.00
2019-03-26T06:45:56.805Z,7.10
2019-03-26T06:47:00.275Z,7.00
2019-03-26T06:48:04.527Z,7.00
2019-03-26T06:49:08.373Z,7.00
2019-03-26T06:50:12.539Z,7.10
2019-03-26T06:51:15.674Z,7.20
2019-03-26T06:52:18.880Z,7.20
2019-03-26T06:53:22.363Z,7.20
2019-03-26T06:54:25.520Z,7.20
2019-03-26T06:55:29.014Z,7.20
2019-03-26T06:56:32.184Z,7.20
2019-03-26T06:57:36.140Z,7.10
2019-03-26T06:58:39.555Z,7.20
2019-03-26T06:59:43.001Z,7.20
2019-03-26T07:00:46.434Z,7.20
2019-03-26T07:01:49.717Z,7.20
2019-03-26T07:02:53.336Z,7.20
2019-03-26T07:03:56.722Z,7.20
2019-03-26T07:05:00.459Z,7.20
2019-03-26T07:06:03.881Z,7.30
2019-03-26T07:07:07.547Z,7.30
2019-03-26T07:08:10.751Z,7.40
2019-03-26T07:09:13.904Z,7.40
2019-03-26T07:10:21.322Z,7.40
2019-03-26T07:11:24.481Z,7.30
2019-03-26T07:12:27.895Z,7.40
2019-03-26T07:13:31.203Z,7.40
2019-03-26T07:14:34.837Z,7.40
2019-03-26T07:15:38.167Z,7.40
2019-03-26T07:16:41.650Z,7.40
2019-03-26T07:17:45.206Z,7.40
2019-03-26T07:18:48.389Z,7.40
2019-03-26T07:19:54.302Z,7.40
2019-03-26T07:20:57.654Z,7.40
2019-03-26T07:22:00.933Z,7.40
2019-03-26T07:23:04.456Z,7.40
2019-03-26T07:24:07.774Z,7.40
2019-03-26T07:25:11.240Z,7.40
2019-03-26T07:26:14.466Z,7.40
2019-03-26T07:27:17.676Z,7.40
2019-03-26T07:28:20.854Z,7.50
2019-03-26T07:29:24.372Z,7.50
2019-03-26T07:30:38.048Z,7.50
2019-03-26T07:31:41.400Z,7.50
2019-03-26T07:32:44.658Z,7.50
2019-03-26T07:33:47.817Z,7.50
2019-03-26T07:34:51.431Z,7.50
2019-03-26T07:35:54.607Z,7.50
2019-03-26T07:36:57.982Z,7.40
2019-03-26T07:38:01.374Z,7.50
2019-03-26T07:39:06.598Z,7.50
2019-03-26T07:40:10.467Z,7.50
2019-03-26T07:41:13.743Z,7.60
2019-03-26T07:42:17.249Z,7.70
2019-03-26T07:43:20.554Z,7.70
2019-03-26T07:44:24.115Z,7.70
2019-03-26T07:45:27.515Z,7.60
2019-03-26T07:46:30.704Z,7.70
2019-03-26T07:47:34.098Z,7.70
2019-03-26T07:48:37.714Z,7.70
2019-03-26T07:49:41.160Z,7.70
2019-03-26T07:50:44.553Z,7.80
2019-03-26T07:51:47.733Z,7.80
2019-03-26T07:52:50.870Z,7.90
2019-03-26T07:53:54.200Z,8.00
2019-03-26T07:54:57.611Z,8.00
2019-03-26T07:56:00.780Z,8.10
2019-03-26T07:57:03.995Z,8.00
2019-03-26T07:58:07.285Z,8.00
2019-03-26T07:59:10.876Z,8.00
2019-03-26T08:00:14.682Z,8.00
2019-03-26T08:01:18.025Z,8.00
2019-03-26T08:02:21.263Z,8.00
2019-03-26T08:03:24.445Z,8.00
2019-03-26T08:04:27.647Z,8.10
2019-03-26T08:05:32.610Z,8.10
2019-03-26T08:06:35.784Z,8.10
2019-03-26T08:07:39.092Z,8.20
2019-03-26T08:08:42.316Z,8.20
2019-03-26T08:09:45.528Z,8.30
2019-03-26T08:10:48.806Z,8.30
2019-03-26T08:11:52.028Z,8.30
2019-03-26T08:12:55.600Z,8.30
2019-03-26T08:13:58.820Z,8.30
2019-03-26T08:15:02.110Z,8.30
2019-03-26T08:16:05.335Z,8.30
2019-03-26T08:17:08.635Z,8.40
2019-03-26T08:18:11.897Z,8.40
2019-03-26T08:19:15.262Z,8.40
2019-03-26T08:20:18.542Z,8.30
2019-03-26T08:21:21.748Z,8.30
2019-03-26T08:22:25.371Z,8.30
2019-03-26T08:23:28.556Z,8.30
2019-03-26T08:24:31.911Z,8.30
2019-03-26T08:25:35.053Z,8.20
2019-03-26T08:26:38.229Z,8.30
2019-03-26T08:27:41.740Z,8.30
2019-03-26T08:28:44.993Z,8.30
2019-03-26T08:29:48.188Z,8.40
2019-03-26T08:30:52.393Z,8.20
2019-03-26T08:31:55.577Z,8.20
2019-03-26T08:32:58.724Z,8.20
2019-03-26T08:34:02.112Z,8.20
2019-03-26T08:35:05.527Z,8.10
2019-03-26T08:36:08.654Z,8.10
2019-03-26T08:37:12.615Z,8.00
2019-03-26T08:38:15.821Z,8.00
2019-03-26T08:39:19.386Z,8.00
2019-03-26T08:40:23.521Z,8.00
2019-03-26T08:41:26.862Z,8.10
2019-03-26T08:42:31.045Z,8.10
2019-03-26T08:43:34.459Z,8.10
2019-03-26T08:44:37.774Z,8.20
2019-03-26T08:45:41.438Z,8.20
2019-03-26T08:46:46.260Z,8.20
2019-03-26T08:47:49.841Z,8.30
2019-03-26T08:48:53.774Z,8.40
2019-03-26T08:49:57.992Z,8.50
2019-03-26T08:51:01.203Z,8.50
2019-03-26T08:52:04.677Z,8.60
2019-03-26T08:53:08.051Z,8.70
2019-03-26T08:54:11.192Z,8.70
2019-03-26T08:55:14.676Z,8.80
2019-03-26T08:56:17.943Z,8.80
2019-03-26T08:57:21.232Z,8.80
2019-03-26T08:58:24.588Z,8.90
2019-03-26T08:59:28.004Z,9.10
2019-03-26T09:00:32.236Z,9.10
2019-03-26T09:01:35.600Z,9.30
2019-03-26T09:02:38.790Z,9.40
2019-03-26T09:03:42.200Z,9.60
2019-03-26T09:04:45.413Z,9.80
2019-03-26T09:05:48.641Z,10.10
2019-03-26T09:06:51.815Z,10.40
2019-03-26T09:07:56.243Z,10.40
2019-03-26T09:08:59.406Z,10.40
2019-03-26T09:10:02.858Z,10.40
2019-03-26T09:11:06.231Z,10.40
2019-03-26T09:12:09.356Z,10.40
2019-03-26T09:13:12.539Z,10.60
2019-03-26T09:14:16.089Z,10.60
2019-03-26T09:15:19.320Z,10.60
2019-03-26T09:16:22.492Z,10.80
2019-03-26T09:17:25.702Z,10.80
2019-03-26T09:18:29.021Z,10.80
2019-03-26T09:19:32.186Z,10.70
2019-03-26T09:20:35.404Z,10.70
2019-03-26T09:21:38.854Z,10.70
2019-03-26T09:22:42.054Z,10.60
2019-03-26T09:23:45.325Z,10.50
2019-03-26T09:24:48.498Z,10.60
2019-03-26T09:25:51.650Z,10.50
2019-03-26T09:26:54.833Z,10.60
2019-03-26T09:27:59.181Z,10.60
2019-03-26T09:29:02.468Z,10.60
2019-03-26T09:30:07.251Z,10.50
2019-03-26T09:31:10.424Z,10.50
2019-03-26T09:32:13.642Z,10.50
2019-03-26T09:33:16.806Z,10.50
2019-03-26T09:34:21.025Z,10.50
2019-03-26T09:35:24.288Z,10.40
2019-03-26T09:36:27.735Z,10.40
2019-03-26T09:37:31.180Z,10.50
2019-03-26T09:38:39.079Z,10.50
2019-03-26T09:39:41.065Z,10.60
2019-03-26T09:40:44.428Z,10.60
2019-03-26T09:41:49.211Z,10.60
2019-03-26T09:42:52.336Z,10.60
2019-03-26T09:43:55.626Z,10.60
2019-03-26T09:44:58.790Z,10.70
2019-03-26T09:46:03.353Z,10.70
2019-03-26T09:47:16.039Z,10.70
2019-03-26T09:48:11.653Z,10.70
2019-03-26T09:49:14.916Z,10.70
2019-03-26T09:50:30.798Z,10.70
2019-03-26T09:51:33.953Z,10.80
2019-03-26T09:52:37.032Z,10.60
2019-03-26T09:53:40.444Z,10.50
2019-03-26T09:54:43.651Z,10.50
2019-03-26T09:55:47.157Z,10.50
2019-03-26T09:56:50.343Z,10.40
2019-03-26T09:57:53.539Z,10.40
2019-03-26T09:58:56.796Z,10.40
2019-03-26T10:00:00.241Z,10.40
2019-03-26T10:01:03.847Z,10.30
2019-03-26T10:02:07.012Z,10.30
2019-03-26T10:03:10.205Z,10.20
2019-03-26T10:04:13.469Z,10.30
2019-03-26T10:05:17.061Z,10.30
2019-03-26T10:06:23.550Z,10.20
2019-03-26T10:07:25.515Z,10.20
2019-03-26T10:08:28.884Z,10.20
2019-03-26T10:09:32.037Z,10.10
2019-03-26T10:10:35.184Z,10.20
2019-03-26T10:11:38.510Z,10.20
2019-03-26T10:12:42.023Z,10.10
2019-03-26T10:13:45.206Z,10.10
2019-03-26T10:14:48.461Z,10.10
2019-03-26T10:15:51.820Z,10.10
2019-03-26T10:16:55.276Z,10.00
2019-03-26T10:17:58.923Z,10.00
2019-03-26T10:19:02.280Z,10.00
2019-03-26T10:20:07.094Z,10.00
2019-03-26T10:21:10.486Z,9.90
2019-03-26T10:22:14.252Z,9.90
2019-03-26T10:23:17.446Z,9.90
2019-03-26T10:24:20.613Z,9.90
2019-03-26T10:25:23.967Z,9.90
2019-03-26T10:26:28.371Z,9.80
2019-03-26T10:27:31.569Z,9.80
2019-03-26T10:28:34.868Z,9.70
2019-03-26T10:29:38.093Z,9.70
2019-03-26T10:30:41.260Z,9.70
2019-03-26T10:31:44.781Z,9.70
2019-03-26T10:32:48.111Z,9.80
2019-03-26T10:33:51.496Z,9.70
2019-03-26T10:34:54.760Z,9.70
2019-03-26T10:35:57.924Z,9.70
2019-03-26T10:37:02.027Z,9.70
2019-03-26T10:38:05.607Z,9.60
2019-03-26T10:39:08.903Z,9.60
2019-03-26T10:40:15.805Z,9.60
2019-03-26T10:41:18.995Z,9.50
2019-03-26T10:42:22.313Z,9.60
2019-03-26T10:43:26.195Z,9.50
2019-03-26T10:44:29.440Z,9.50
2019-03-26T10:45:32.775Z,9.50
2019-03-26T10:46:36.100Z,9.40
2019-03-26T10:47:39.306Z,9.40
2019-03-26T10:48:42.490Z,9.40
2019-03-26T10:49:45.666Z,9.40
2019-03-26T10:50:50.183Z,9.40
2019-03-26T10:51:53.379Z,9.40
2019-03-26T10:52:56.569Z,9.40
2019-03-26T10:54:00.080Z,9.40
2019-03-26T10:55:03.505Z,9.40
2019-03-26T10:56:06.921Z,9.40
2019-03-26T10:57:10.243Z,9.40
2019-03-26T10:58:13.702Z,9.40
2019-03-26T10:59:17.040Z,9.40
2019-03-26T11:00:20.904Z,9.50
2019-03-26T11:01:24.092Z,9.50
2019-03-26T11:02:27.264Z,9.40
2019-03-26T11:03:30.831Z,9.40
2019-03-26T11:04:34.139Z,9.40
2019-03-26T11:05:37.466Z,9.30
2019-03-26T11:06:41.077Z,9.30
2019-03-26T11:07:44.335Z,9.30
2019-03-26T11:08:47.852Z,9.40
2019-03-26T11:09:51.271Z,9.40
2019-03-26T11:10:54.452Z,9.40
2019-03-26T11:11:57.951Z,9.40
2019-03-26T11:13:01.402Z,9.50
2019-03-26T11:14:04.621Z,9.60
2019-03-26T11:15:08.950Z,9.60
2019-03-26T11:16:12.136Z,9.60
2019-03-26T11:17:15.303Z,9.60
2019-03-26T11:18:18.618Z,9.60
2019-03-26T11:19:23.090Z,9.50
2019-03-26T11:20:26.378Z,9.50
2019-03-26T11:21:29.769Z,9.50
2019-03-26T11:22:33.146Z,9.50
2019-03-26T11:23:36.332Z,9.50
2019-03-26T11:24:39.611Z,9.50
2019-03-26T11:25:42.758Z,9.50
2019-03-26T11:26:45.949Z,9.50
2019-03-26T11:27:49.274Z,9.50
2019-03-26T11:28:52.449Z,9.50
2019-03-26T11:29:55.826Z,9.60
2019-03-26T11:30:59.111Z,9.60
2019-03-26T11:32:02.325Z,9.60
2019-03-26T11:33:05.513Z,9.50
2019-03-26T11:34:08.680Z,9.50
2019-03-26T11:35:12.530Z,9.50
2019-03-26T11:36:15.894Z,9.60
2019-03-26T11:37:19.039Z,9.60
2019-03-26T11:38:22.438Z,9.60
2019-03-26T11:39:32.650Z,9.60
2019-03-26T11:40:31.297Z,9.60
2019-03-26T11:41:35.765Z,9.60
2019-03-26T11:42:38.920Z,9.70
2019-03-26T11:43:42.212Z,9.70
2019-03-26T11:44:45.432Z,9.70
2019-03-26T11:45:48.735Z,9.70
2019-03-26T11:46:52.306Z,9.70
2019-03-26T11:47:55.533Z,9.70
2019-03-26T11:48:59.917Z,9.80
2019-03-26T11:50:04.825Z,9.90
2019-03-26T11:51:08.427Z,9.90
2019-03-26T11:52:13.481Z,9.90
2019-03-26T11:53:16.672Z,10.00
2019-03-26T11:54:19.946Z,10.00
2019-03-26T11:55:23.139Z,10.00
2019-03-26T11:56:26.489Z,10.00
2019-03-26T11:57:29.707Z,10.00
2019-03-26T11:58:32.961Z,10.00
2019-03-26T11:59:36.110Z,10.00
2019-03-26T12:00:39.333Z,10.00
2019-03-26T12:01:42.502Z,10.00
2019-03-26T12:02:45.795Z,10.00
2019-03-26T12:03:49.024Z,10.00
2019-03-26T12:04:52.314Z,10.00
2019-03-26T12:05:55.536Z,9.90
2019-03-26T12:06:59.125Z,10.00
2019-03-26T12:08:02.384Z,9.90
2019-03-26T12:09:07.072Z,10.00
2019-03-26T12:10:12.242Z,9.90
2019-03-26T12:11:15.488Z,10.00
2019-03-26T12:12:19.931Z,9.90
2019-03-26T12:13:23.092Z,9.90
2019-03-26T12:14:26.551Z,9.90
2019-03-26T12:15:29.968Z,9.90
2019-03-26T12:16:33.233Z,9.90
2019-03-26T12:17:36.578Z,9.90
2019-03-26T12:18:39.915Z,9.90
2019-03-26T12:19:43.102Z,9.90
2019-03-26T12:20:46.311Z,9.90
2019-03-26T12:21:49.822Z,9.90
2019-03-26T12:22:52.999Z,9.90
2019-03-26T12:23:56.371Z,9.80
2019-03-26T12:24:59.657Z,9.90
2019-03-26T12:26:03.005Z,9.80
2019-03-26T12:27:07.605Z,9.80
2019-03-26T12:28:10.780Z,9.70
2019-03-26T12:29:14.316Z,9.70
2019-03-26T12:30:32.332Z,9.70
2019-03-26T12:31:35.625Z,9.70
2019-03-26T12:32:40.942Z,9.60
2019-03-26T12:33:44.196Z,9.60
2019-03-26T12:34:47.462Z,9.60
2019-03-26T12:35:50.640Z,9.60
2019-03-26T12:36:54.159Z,9.50
2019-03-26T12:37:57.445Z,9.50
2019-03-26T12:39:01.228Z,9.50
2019-03-26T12:40:05.477Z,9.40
2019-03-26T12:41:09.025Z,9.40
2019-03-26T12:42:12.201Z,9.40
2019-03-26T12:43:15.711Z,9.40
2019-03-26T12:44:18.980Z,9.30
2019-03-26T12:45:22.159Z,9.30
2019-03-26T12:46:25.352Z,9.20
2019-03-26T12:47:28.712Z,9.20
2019-03-26T12:48:32.133Z,9.20
2019-03-26T12:49:35.271Z,9.20
2019-03-26T12:50:38.446Z,9.20
2019-03-26T12:51:41.875Z,9.20
2019-03-26T12:52:45.011Z,9.20
2019-03-26T12:53:48.326Z,9.20
2019-03-26T12:54:51.653Z,9.10
2019-03-26T12:55:54.954Z,9.10
2019-03-26T12:57:00.197Z,9.10
2019-03-26T12:58:03.334Z,9.10
2019-03-26T12:59:06.537Z,9.10
2019-03-26T13:00:10.052Z,9.10
2019-03-26T13:01:13.411Z,9.00
2019-03-26T13:02:16.891Z,9.00
2019-03-26T13:03:20.172Z,9.00
2019-03-26T13:04:23.511Z,9.00
2019-03-26T13:05:26.734Z,9.00
2019-03-26T13:06:29.918Z,9.00
2019-03-26T13:07:33.218Z,9.00
2019-03-26T13:08:36.367Z,9.00
2019-03-26T13:09:41.918Z,8.90
2019-03-26T13:10:53.252Z,8.90
2019-03-26T13:11:49.886Z,8.90
2019-03-26T13:12:53.249Z,8.90
2019-03-26T13:13:56.593Z,8.90
2019-03-26T13:14:59.857Z,8.90
2019-03-26T13:16:03.215Z,8.80
2019-03-26T13:17:06.508Z,8.80
2019-03-26T13:18:11.203Z,8.80
2019-03-26T13:19:14.801Z,8.80
2019-03-26T13:20:18.194Z,8.70
2019-03-26T13:21:21.577Z,8.70
2019-03-26T13:22:24.913Z,8.70
2019-03-26T13:23:28.003Z,8.70
2019-03-26T13:24:31.371Z,8.70
2019-03-26T13:25:34.523Z,8.70
2019-03-26T13:26:39.026Z,8.70
2019-03-26T13:27:42.289Z,8.80
2019-03-26T13:28:45.479Z,8.80
2019-03-26T13:29:48.685Z,8.70
2019-03-26T13:30:51.830Z,8.70
2019-03-26T13:31:55.378Z,8.70
2019-03-26T13:32:58.880Z,8.80
2019-03-26T13:34:02.027Z,8.90
2019-03-26T13:35:06.156Z,8.90
2019-03-26T13:36:09.448Z,8.90
2019-03-26T13:37:12.850Z,9.00
2019-03-26T13:38:16.175Z,9.00
2019-03-26T13:39:19.334Z,9.00
2019-03-26T13:40:27.598Z,9.00
2019-03-26T13:41:28.253Z,9.00
2019-03-26T13:42:33.388Z,9.00
2019-03-26T13:43:36.850Z,9.00
2019-03-26T13:44:40.282Z,9.00
2019-03-26T13:45:45.070Z,9.00
2019-03-26T13:46:48.259Z,9.00
2019-03-26T13:47:51.507Z,9.00
2019-03-26T13:48:54.844Z,9.00
2019-03-26T13:49:58.216Z,9.00
2019-03-26T13:51:01.375Z,9.00
2019-03-26T13:52:04.545Z,9.00
2019-03-26T13:53:07.710Z,9.00
2019-03-26T13:54:11.121Z,9.00
2019-03-26T13:55:16.266Z,9.00
2019-03-26T13:56:19.728Z,9.00
2019-03-26T13:57:23.009Z,9.10
2019-03-26T13:58:26.150Z,9.10
2019-03-26T13:59:29.323Z,9.10
2019-03-26T14:00:34.402Z,9.10
2019-03-26T14:01:37.794Z,9.10
2019-03-26T14:02:41.316Z,9.10